createdAt,value
2022-07-29T00:01:55.943Z,4.20
2022-07-29T00:04:23.744Z,2.80
2022-07-29T00:06:51.717Z,1.40
2022-07-29T00:09:19.373Z,1.20
2022-07-29T00:11:46.972Z,1.60
2022-07-29T00:14:14.983Z,3.60
2022-07-29T00:16:43.307Z,2.00
2022-07-29T00:19:11.004Z,2.40
2022-07-29T00:21:38.830Z,2.00
2022-07-29T00:24:06.536Z,1.20
2022-07-29T00:26:34.560Z,4.00
2022-07-29T00:29:32.329Z,2.00
2022-07-29T00:31:50.168Z,2.20
2022-07-29T00:34:32.006Z,4.00
2022-07-29T00:36:59.686Z,2.20
2022-07-29T00:39:27.517Z,3.40
2022-07-29T00:41:55.181Z,2.00
2022-07-29T00:44:23.158Z,1.20
2022-07-29T00:46:50.839Z,2.00
2022-07-29T00:49:18.774Z,2.80
2022-07-29T00:51:46.541Z,3.60
2022-07-29T00:54:14.919Z,4.00
2022-07-29T00:56:42.781Z,4.00
2022-07-29T00:59:10.470Z,2.00
2022-07-29T01:01:38.159Z,3.00
2022-07-29T01:04:05.894Z,2.40
2022-07-29T01:06:35.129Z,4.00
2022-07-29T01:09:03.133Z,4.00
2022-07-29T01:11:30.760Z,2.40
2022-07-29T01:13:58.444Z,2.40
2022-07-29T01:16:26.426Z,1.40
2022-07-29T01:18:54.120Z,2.80
2022-07-29T01:21:21.819Z,2.40
2022-07-29T01:23:49.768Z,2.20
2022-07-29T01:26:20.337Z,1.00
2022-07-29T01:28:48.359Z,2.20
2022-07-29T01:31:24.964Z,4.00
2022-07-29T01:33:54.372Z,3.00
2022-07-29T01:36:21.967Z,2.80
2022-07-29T01:38:50.014Z,2.80
2022-07-29T01:41:17.622Z,2.20
2022-07-29T01:43:45.205Z,3.00
2022-07-29T01:46:12.963Z,2.80
2022-07-29T01:48:41.046Z,3.00
2022-07-29T01:51:08.804Z,4.00
2022-07-29T01:53:38.025Z,4.00
2022-07-29T01:56:06.057Z,3.00
2022-07-29T01:58:34.061Z,3.40
2022-07-29T02:01:01.870Z,3.60
2022-07-29T02:03:29.513Z,2.80
2022-07-29T02:05:57.134Z,4.00
2022-07-29T02:08:25.095Z,4.00
2022-07-29T02:10:52.953Z,3.20
2022-07-29T02:13:20.676Z,4.40
2022-07-29T02:15:48.681Z,3.00
2022-07-29T02:18:25.443Z,4.80
2022-07-29T02:20:53.154Z,3.80
2022-07-29T02:23:21.051Z,3.00
2022-07-29T02:25:48.855Z,3.00
2022-07-29T02:28:17.481Z,3.00
2022-07-29T02:30:45.304Z,4.00
2022-07-29T02:33:13.022Z,3.00
2022-07-29T02:35:40.848Z,4.00
2022-07-29T02:38:26.081Z,3.00
2022-07-29T02:40:54.770Z,3.40
2022-07-29T02:43:22.459Z,3.00
2022-07-29T02:45:51.855Z,4.00
2022-07-29T02:48:20.069Z,4.40
2022-07-29T02:50:47.668Z,4.00
2022-07-29T02:53:15.376Z,3.20
2022-07-29T02:55:43.102Z,4.00
2022-07-29T02:58:13.264Z,3.00
2022-07-29T03:00:40.905Z,4.00
2022-07-29T03:03:08.499Z,3.20
2022-07-29T03:05:36.297Z,4.80
2022-07-29T03:08:05.907Z,4.80
2022-07-29T03:10:36.036Z,4.60
2022-07-29T03:13:04.549Z,3.20
2022-07-29T03:15:32.192Z,3.60
2022-07-29T03:17:59.843Z,6.00
2022-07-29T03:20:27.449Z,3.40
2022-07-29T03:22:55.878Z,3.80
2022-07-29T03:25:23.555Z,6.60
2022-07-29T03:27:51.159Z,3.00
2022-07-29T03:30:21.717Z,4.80
2022-07-29T03:32:51.847Z,4.00
2022-07-29T03:35:20.440Z,3.00
2022-07-29T03:37:48.595Z,3.80
2022-07-29T03:40:16.754Z,4.00
2022-07-29T03:42:44.464Z,3.00
2022-07-29T03:45:12.223Z,4.00
2022-07-29T03:47:50.374Z,4.80
2022-07-29T03:50:20.573Z,3.40
2022-07-29T03:52:48.365Z,3.00
2022-07-29T03:55:16.015Z,4.00
2022-07-29T03:57:43.632Z,3.00
2022-07-29T04:00:11.618Z,4.00
2022-07-29T04:02:39.325Z,3.00
2022-07-29T04:05:06.992Z,4.00
2022-07-29T04:07:34.606Z,3.40
2022-07-29T04:10:02.330Z,3.80
2022-07-29T04:12:30.249Z,6.00
2022-07-29T04:14:58.741Z,4.80
2022-07-29T04:17:26.324Z,4.00
2022-07-29T04:19:54.034Z,5.60
2022-07-29T04:22:21.801Z,5.20
2022-07-29T04:24:50.870Z,3.00
2022-07-29T04:27:18.469Z,4.00
2022-07-29T04:29:56.099Z,6.00
2022-07-29T04:32:25.069Z,4.00
2022-07-29T04:34:52.757Z,6.00
2022-07-29T04:37:20.712Z,3.60
2022-07-29T04:39:48.453Z,4.40
2022-07-29T04:42:16.057Z,5.60
2022-07-29T04:44:45.055Z,3.00
2022-07-29T04:47:13.747Z,4.00
2022-07-29T04:49:41.410Z,3.80
2022-07-29T04:52:09.012Z,5.20
2022-07-29T04:54:36.783Z,6.00
2022-07-29T04:57:04.742Z,4.40
2022-07-29T04:59:32.896Z,6.00
2022-07-29T05:02:00.560Z,4.00
2022-07-29T05:04:28.186Z,6.00
2022-07-29T05:06:57.342Z,4.00
2022-07-29T05:09:24.975Z,6.00
2022-07-29T05:11:52.637Z,3.25
2022-07-29T05:14:20.860Z,4.00
2022-07-29T05:16:50.573Z,4.00
2022-07-29T05:19:18.335Z,3.00
2022-07-29T05:21:46.420Z,3.00
2022-07-29T05:24:14.355Z,4.00
2022-07-29T05:26:43.913Z,3.00
2022-07-29T05:29:43.122Z,4.20
2022-07-29T05:31:59.659Z,3.00
2022-07-29T05:34:27.907Z,5.60
2022-07-29T05:36:55.865Z,4.80
2022-07-29T05:39:23.531Z,3.60
2022-07-29T05:42:11.384Z,3.00
2022-07-29T05:44:40.023Z,6.00
2022-07-29T05:47:07.670Z,4.00
2022-07-29T05:49:35.474Z,3.00
2022-07-29T05:52:03.116Z,3.00
2022-07-29T05:54:31.818Z,3.00
2022-07-29T05:56:59.504Z,3.60
2022-07-29T05:59:30.500Z,5.40
2022-07-29T06:01:58.752Z,1.20
2022-07-29T06:04:26.614Z,3.00
2022-07-29T06:06:54.808Z,3.00
2022-07-29T06:09:23.901Z,3.00
2022-07-29T06:11:51.698Z,1.00
2022-07-29T06:14:19.696Z,2.40
2022-07-29T06:16:48.159Z,3.80
2022-07-29T06:19:15.932Z,1.00
2022-07-29T06:21:43.596Z,3.00
2022-07-29T06:24:11.403Z,2.20
2022-07-29T06:26:39.992Z,2.00
2022-07-29T06:29:07.836Z,3.00
2022-07-29T06:31:35.525Z,3.80
2022-07-29T06:34:03.464Z,2.40
2022-07-29T06:36:32.656Z,1.60
2022-07-29T06:39:00.848Z,3.00
2022-07-29T06:41:30.737Z,3.00
2022-07-29T06:43:58.405Z,1.00
2022-07-29T06:46:26.176Z,4.00
2022-07-29T06:48:54.380Z,3.00
2022-07-29T06:51:23.342Z,1.00
2022-07-29T06:54:00.195Z,3.00
2022-07-29T06:56:30.780Z,1.00
2022-07-29T06:58:58.966Z,4.00
2022-07-29T07:01:27.037Z,3.80
2022-07-29T07:03:54.683Z,1.00
2022-07-29T07:06:22.336Z,3.00
2022-07-29T07:08:51.058Z,1.40
2022-07-29T07:11:18.767Z,4.00
2022-07-29T07:13:46.442Z,2.20
2022-07-29T07:16:14.254Z,1.00
2022-07-29T07:18:42.774Z,3.60
2022-07-29T07:21:10.686Z,2.40
2022-07-29T07:23:38.390Z,2.00
2022-07-29T07:26:06.990Z,3.20
2022-07-29T07:28:34.678Z,4.00
2022-07-29T07:31:02.326Z,4.00
2022-07-29T07:33:29.926Z,4.00
2022-07-29T07:35:57.647Z,4.00
2022-07-29T07:38:25.395Z,3.60
2022-07-29T07:40:53.015Z,4.80
2022-07-29T07:43:21.109Z,2.00
2022-07-29T07:45:48.920Z,2.00
2022-07-29T07:48:16.652Z,4.00
2022-07-29T07:50:44.913Z,2.00
2022-07-29T07:53:13.184Z,2.80
2022-07-29T07:56:07.947Z,4.40
2022-07-29T07:58:28.488Z,2.80
2022-07-29T08:00:56.305Z,4.20
2022-07-29T08:03:23.951Z,4.00
2022-07-29T08:05:52.234Z,2.80
2022-07-29T08:08:20.314Z,4.00
2022-07-29T08:10:58.092Z,1.40
2022-07-29T08:13:26.344Z,4.20
2022-07-29T08:16:00.958Z,4.00
2022-07-29T08:18:28.762Z,4.20
2022-07-29T08:20:56.374Z,4.00
2022-07-29T08:23:25.446Z,5.00
2022-07-29T08:25:54.772Z,4.00
2022-07-29T08:28:26.035Z,3.80
2022-07-29T08:30:53.757Z,4.40
2022-07-29T08:33:21.487Z,4.00
2022-07-29T08:35:51.058Z,4.00
2022-07-29T08:38:19.273Z,2.40
2022-07-29T08:40:46.957Z,2.40
2022-07-29T08:43:14.888Z,4.80
2022-07-29T08:45:47.330Z,2.40
2022-07-29T08:48:16.313Z,3.20
2022-07-29T08:50:46.542Z,5.00
2022-07-29T08:53:15.266Z,3.00
2022-07-29T08:55:43.340Z,5.40
2022-07-29T08:58:11.432Z,5.00
2022-07-29T09:00:43.394Z,3.00
2022-07-29T09:03:12.836Z,3.00
2022-07-29T09:05:43.787Z,5.40
2022-07-29T09:08:14.247Z,3.00
2022-07-29T09:10:41.978Z,4.20
2022-07-29T09:13:09.608Z,3.40
2022-07-29T09:15:37.818Z,5.20
2022-07-29T09:18:05.420Z,3.80
2022-07-29T09:20:46.913Z,5.60
2022-07-29T09:23:23.081Z,6.00
2022-07-29T09:25:52.852Z,3.80
2022-07-29T09:28:20.461Z,4.20
2022-07-29T09:30:48.174Z,5.00
2022-07-29T09:33:15.844Z,3.20
2022-07-29T09:35:43.613Z,4.20
2022-07-29T09:38:25.168Z,3.00
2022-07-29T09:40:52.802Z,4.40
2022-07-29T09:43:20.474Z,5.80
2022-07-29T09:45:48.767Z,2.60
2022-07-29T09:48:16.578Z,5.20
2022-07-29T09:50:44.991Z,6.00
2022-07-29T09:53:12.726Z,4.00
2022-07-29T09:55:40.848Z,5.60
2022-07-29T09:58:08.878Z,5.60
2022-07-29T10:00:36.607Z,4.00
2022-07-29T10:03:04.333Z,4.40
2022-07-29T10:05:36.242Z,4.00
2022-07-29T10:08:04.654Z,4.00
2022-07-29T10:10:32.397Z,4.00
2022-07-29T10:13:04.572Z,6.00
2022-07-29T10:15:38.315Z,1.20
2022-07-29T10:18:06.032Z,3.60
2022-07-29T10:20:34.046Z,3.60
2022-07-29T10:23:01.824Z,3.80
2022-07-29T10:25:29.956Z,4.80
2022-07-29T10:27:57.600Z,4.00
2022-07-29T10:30:25.273Z,5.60
2022-07-29T10:32:54.411Z,2.60
2022-07-29T10:35:22.225Z,3.00
2022-07-29T10:37:50.380Z,3.80
2022-07-29T10:40:35.781Z,6.00
2022-07-29T10:43:03.549Z,4.80
2022-07-29T10:45:31.757Z,6.40
2022-07-29T10:48:00.603Z,4.00
2022-07-29T10:50:28.361Z,3.80
2022-07-29T10:52:57.619Z,5.60
2022-07-29T10:55:25.441Z,5.20
2022-07-29T10:57:55.017Z,1.60
2022-07-29T11:00:25.440Z,4.20
2022-07-29T11:02:56.245Z,5.00
2022-07-29T11:05:39.795Z,5.00
2022-07-29T11:08:10.717Z,6.00
2022-07-29T11:10:47.659Z,6.80
2022-07-29T11:13:17.208Z,7.60
2022-07-29T11:15:44.982Z,7.00
2022-07-29T11:18:17.442Z,4.60
2022-07-29T11:20:45.949Z,6.80
2022-07-29T11:23:14.038Z,7.40
2022-07-29T11:25:50.156Z,6.00
2022-07-29T11:28:22.791Z,7.80
2022-07-29T11:30:52.747Z,6.60
2022-07-29T11:33:20.938Z,6.00
2022-07-29T11:36:08.543Z,6.40
2022-07-29T11:38:44.770Z,6.00
2022-07-29T11:41:12.485Z,8.20
2022-07-29T11:43:40.198Z,7.00
2022-07-29T11:46:09.398Z,5.40
2022-07-29T11:48:38.261Z,6.00
2022-07-29T11:51:06.353Z,4.60
2022-07-29T11:53:34.305Z,5.60
2022-07-29T11:58:50.307Z,5.20
2022-07-29T12:01:18.887Z,4.00
2022-07-29T12:03:46.964Z,5.60
2022-07-29T12:06:17.990Z,6.40
2022-07-29T12:07:03.725Z,6.20
2022-07-29T12:08:46.172Z,5.20
2022-07-29T12:11:15.334Z,5.40
2022-07-29T12:13:43.837Z,4.40
2022-07-29T12:16:14.661Z,4.60
2022-07-29T12:18:42.650Z,5.40
2022-07-29T12:21:12.386Z,5.60
2022-07-29T12:23:40.280Z,4.80
2022-07-29T12:26:10.611Z,4.00
2022-07-29T12:28:40.520Z,5.20
2022-07-29T12:31:08.528Z,5.40
2022-07-29T12:33:36.267Z,5.00
2022-07-29T12:36:09.559Z,4.80
2022-07-29T12:38:40.666Z,6.40
2022-07-29T12:41:08.337Z,3.00
2022-07-29T12:43:36.507Z,6.00
2022-07-29T12:46:04.178Z,2.20
2022-07-29T12:48:31.878Z,5.20
2022-07-29T12:50:59.481Z,6.80
2022-07-29T12:53:27.785Z,6.00
2022-07-29T12:55:55.625Z,7.00
2022-07-29T12:58:23.267Z,6.80
2022-07-29T13:00:50.988Z,4.40
2022-07-29T13:03:18.768Z,4.40
2022-07-29T13:05:49.672Z,5.20
2022-07-29T13:08:29.730Z,7.00
2022-07-29T13:10:57.804Z,3.60
2022-07-29T13:13:25.453Z,3.00
2022-07-29T13:15:53.228Z,5.80
2022-07-29T13:18:20.961Z,6.60
2022-07-29T13:20:52.019Z,10.00
2022-07-29T13:23:21.098Z,6.00
2022-07-29T13:25:49.131Z,5.00
2022-07-29T13:28:17.686Z,5.40
2022-07-29T13:30:45.390Z,6.00
2022-07-29T13:33:13.258Z,5.40
2022-07-29T13:35:40.875Z,6.20
2022-07-29T13:38:08.989Z,6.00
2022-07-29T13:40:36.668Z,6.40
2022-07-29T13:43:04.316Z,5.00
2022-07-29T13:45:31.987Z,1.40
2022-07-29T13:48:00.054Z,6.00
2022-07-29T13:50:27.755Z,6.00
2022-07-29T13:52:55.416Z,5.40
2022-07-29T13:55:23.107Z,5.00
2022-07-29T13:57:51.069Z,6.00
2022-07-29T14:00:19.983Z,4.80
2022-07-29T14:02:47.659Z,4.80
2022-07-29T14:05:15.332Z,6.00
2022-07-29T14:07:43.463Z,5.60
2022-07-29T14:10:11.177Z,6.80
2022-07-29T14:12:38.796Z,8.00
2022-07-29T14:15:06.722Z,7.00
2022-07-29T14:17:34.510Z,2.20
2022-07-29T14:20:02.300Z,6.00
2022-07-29T14:22:30.616Z,6.00
2022-07-29T14:24:58.564Z,6.60
2022-07-29T14:27:37.317Z,4.00
2022-07-29T14:30:06.182Z,7.00
2022-07-29T14:32:33.955Z,12.00
2022-07-29T14:35:01.728Z,10.00
2022-07-29T14:37:40.131Z,7.40
2022-07-29T14:40:08.436Z,9.60
2022-07-29T14:42:37.325Z,10.40
2022-07-29T14:45:05.304Z,6.20
2022-07-29T14:47:33.573Z,8.00
2022-07-29T14:50:01.332Z,8.80
2022-07-29T14:52:29.088Z,8.80
2022-07-29T14:54:57.229Z,9.20
2022-07-29T14:57:24.881Z,9.80
2022-07-29T14:59:52.694Z,8.40
2022-07-29T15:02:20.421Z,7.80
2022-07-29T15:04:49.162Z,6.60
2022-07-29T15:07:16.998Z,7.40
2022-07-29T15:09:50.027Z,7.60
2022-07-29T15:12:18.170Z,8.80
2022-07-29T15:14:46.690Z,10.00
2022-07-29T15:17:14.333Z,10.00
2022-07-29T15:19:45.076Z,8.80
2022-07-29T15:22:12.967Z,8.80
2022-07-29T15:24:42.014Z,7.60
2022-07-29T15:27:15.047Z,8.20
2022-07-29T15:29:42.937Z,8.40
2022-07-29T15:32:10.679Z,8.60
2022-07-29T15:34:38.346Z,7.20
2022-07-29T15:37:07.836Z,8.80
2022-07-29T15:39:35.460Z,8.80
2022-07-29T15:42:03.672Z,8.40
2022-07-29T15:44:31.588Z,8.00
2022-07-29T15:47:06.248Z,6.00
2022-07-29T15:49:47.970Z,6.20
2022-07-29T15:52:17.251Z,4.60
2022-07-29T15:54:45.840Z,8.00
2022-07-29T15:57:13.468Z,5.00
2022-07-29T15:59:41.471Z,5.60
2022-07-29T16:02:09.094Z,6.00
2022-07-29T16:04:36.929Z,6.00
2022-07-29T16:07:05.240Z,6.00
2022-07-29T16:09:32.863Z,6.00
2022-07-29T16:12:00.611Z,6.20
2022-07-29T16:14:28.648Z,7.20
2022-07-29T16:16:57.373Z,5.60
2022-07-29T16:19:25.239Z,6.20
2022-07-29T16:21:54.977Z,4.80
2022-07-29T16:24:29.864Z,7.80
2022-07-29T16:26:57.834Z,8.00
2022-07-29T16:29:25.706Z,6.00
2022-07-29T16:31:54.303Z,6.00
2022-07-29T16:34:22.073Z,5.00
2022-07-29T16:36:50.247Z,6.00
2022-07-29T16:39:17.948Z,6.00
2022-07-29T16:41:45.606Z,5.00
2022-07-29T16:44:13.365Z,6.80
2022-07-29T16:46:41.757Z,7.60
2022-07-29T16:49:09.531Z,8.60
2022-07-29T16:51:37.303Z,6.40
2022-07-29T16:54:05.136Z,6.80
2022-07-29T16:56:33.677Z,4.00
2022-07-29T16:59:01.412Z,7.00
2022-07-29T17:01:29.260Z,8.00
2022-07-29T17:04:09.707Z,7.40
2022-07-29T17:06:37.339Z,7.00
2022-07-29T17:09:05.360Z,5.20
2022-07-29T17:11:52.554Z,7.80
2022-07-29T17:14:24.016Z,6.40
2022-07-29T17:17:01.141Z,6.40
2022-07-29T17:19:29.448Z,7.40
2022-07-29T17:22:04.739Z,7.00
2022-07-29T17:24:38.119Z,8.80
2022-07-29T17:27:06.171Z,6.00
2022-07-29T17:29:35.000Z,5.60
2022-07-29T17:32:02.821Z,5.80
2022-07-29T17:34:30.576Z,6.80
2022-07-29T17:36:58.997Z,7.00
2022-07-29T17:39:26.925Z,7.00
2022-07-29T17:41:54.718Z,5.00
2022-07-29T17:44:22.386Z,6.00
2022-07-29T17:46:50.422Z,6.00
2022-07-29T17:49:19.531Z,7.00
2022-07-29T17:51:47.307Z,7.00
2022-07-29T17:54:14.987Z,6.00
2022-07-29T17:56:43.106Z,7.80
2022-07-29T17:59:10.993Z,2.00
2022-07-29T18:01:40.315Z,7.00
2022-07-29T18:04:08.066Z,7.60
2022-07-29T18:06:35.751Z,7.00
2022-07-29T18:09:04.251Z,7.00
2022-07-29T18:11:32.753Z,7.20
2022-07-29T18:14:02.347Z,7.00
2022-07-29T18:16:30.320Z,8.00
2022-07-29T18:18:58.050Z,7.60
2022-07-29T18:21:42.601Z,6.80
2022-07-29T18:24:13.374Z,7.40
2022-07-29T18:26:41.436Z,6.60
2022-07-29T18:29:09.214Z,10.60
2022-07-29T18:31:38.499Z,7.00
2022-07-29T18:34:06.300Z,8.20
2022-07-29T18:36:33.995Z,6.00
2022-07-29T18:39:02.381Z,9.00
2022-07-29T18:41:30.088Z,9.60
2022-07-29T18:43:57.749Z,7.60
2022-07-29T18:46:25.641Z,6.60
2022-07-29T18:48:54.297Z,9.60
2022-07-29T18:51:23.152Z,7.00
2022-07-29T18:53:50.798Z,7.80
2022-07-29T18:56:18.475Z,6.00
2022-07-29T18:58:48.120Z,7.60
2022-07-29T19:01:16.831Z,6.00
2022-07-29T19:03:44.725Z,7.00
2022-07-29T19:06:12.392Z,9.00
2022-07-29T19:08:40.451Z,8.40
2022-07-29T19:11:08.108Z,6.00
2022-07-29T19:13:37.337Z,5.20
2022-07-29T19:16:05.380Z,5.20
2022-07-29T19:18:33.186Z,7.40
2022-07-29T19:21:00.940Z,5.40
2022-07-29T19:23:28.705Z,8.00
2022-07-29T19:25:57.400Z,8.00
2022-07-29T19:28:25.520Z,6.60
2022-07-29T19:30:53.323Z,7.80
2022-07-29T19:33:21.172Z,8.00
2022-07-29T19:35:54.343Z,5.00
2022-07-29T19:38:23.103Z,8.60
2022-07-29T19:40:50.778Z,6.00
2022-07-29T19:43:51.659Z,6.00
2022-07-29T19:46:06.293Z,6.80
2022-07-29T19:48:33.996Z,8.40
2022-07-29T19:51:01.693Z,7.20
2022-07-29T19:53:29.994Z,5.20
2022-07-29T19:55:57.625Z,6.00
2022-07-29T19:58:25.931Z,5.00
2022-07-29T20:00:54.788Z,8.00
2022-07-29T20:03:22.509Z,8.00
2022-07-29T20:05:51.476Z,4.00
2022-07-29T20:08:19.767Z,8.40
2022-07-29T20:10:47.467Z,8.80
2022-07-29T20:13:15.247Z,9.20
2022-07-29T20:15:42.997Z,9.00
2022-07-29T20:18:11.134Z,5.80
2022-07-29T20:20:38.743Z,8.20
2022-07-29T20:23:06.603Z,12.00
2022-07-29T20:25:34.332Z,8.60
2022-07-29T20:28:03.113Z,9.00
2022-07-29T20:30:30.873Z,8.60
2022-07-29T20:32:58.638Z,6.00
2022-07-29T20:35:28.153Z,7.80
2022-07-29T20:37:56.773Z,5.60
2022-07-29T20:40:24.435Z,8.00
2022-07-29T20:42:52.194Z,6.80
2022-07-29T20:45:20.271Z,6.40
2022-07-29T20:47:48.335Z,11.00
2022-07-29T20:50:16.278Z,10.20
2022-07-29T20:52:44.307Z,8.80
2022-07-29T20:55:12.060Z,8.60
2022-07-29T20:57:40.349Z,7.00
2022-07-29T21:00:08.129Z,7.20
2022-07-29T21:02:35.790Z,8.00
2022-07-29T21:05:03.515Z,7.00
2022-07-29T21:07:31.534Z,8.00
2022-07-29T21:09:59.351Z,7.80
2022-07-29T21:12:26.997Z,4.20
2022-07-29T21:14:54.709Z,9.80
2022-07-29T21:17:22.904Z,7.00
2022-07-29T21:19:52.734Z,10.40
2022-07-29T21:22:22.094Z,8.00
2022-07-29T21:24:50.283Z,7.00
2022-07-29T21:27:38.232Z,7.80
2022-07-29T21:30:06.188Z,8.00
2022-07-29T21:32:33.995Z,6.60
2022-07-29T21:35:01.764Z,10.20
2022-07-29T21:37:29.874Z,7.00
2022-07-29T21:39:57.592Z,8.00
2022-07-29T21:42:25.202Z,9.00
2022-07-29T21:44:52.829Z,10.20
2022-07-29T21:47:21.003Z,10.80
2022-07-29T21:49:48.767Z,11.60
2022-07-29T21:52:18.418Z,11.00
2022-07-29T21:54:46.164Z,7.75
2022-07-29T21:57:16.847Z,8.00
2022-07-29T21:59:44.482Z,11.00
2022-07-29T22:02:12.175Z,8.80
2022-07-29T22:04:40.466Z,7.60
2022-07-29T22:07:08.617Z,7.40
2022-07-29T22:09:36.308Z,9.60
2022-07-29T22:12:04.006Z,7.00
2022-07-29T22:14:31.764Z,8.00
2022-07-29T22:17:00.400Z,10.20
2022-07-29T22:19:29.977Z,8.00
2022-07-29T22:21:58.045Z,8.00
2022-07-29T22:24:25.751Z,7.20
2022-07-29T22:26:53.769Z,8.00
2022-07-29T22:29:21.928Z,8.00
2022-07-29T22:31:49.620Z,8.00
2022-07-29T22:34:17.326Z,9.80
2022-07-29T22:36:45.437Z,9.60
2022-07-29T22:39:16.155Z,7.80
2022-07-29T22:41:44.011Z,4.20
2022-07-29T22:44:11.638Z,10.00
2022-07-29T22:46:39.945Z,10.00
2022-07-29T22:49:07.626Z,10.00
2022-07-29T22:51:35.741Z,10.60
2022-07-29T22:54:03.465Z,8.40
2022-07-29T22:56:31.390Z,8.40
2022-07-29T22:58:59.105Z,10.00
2022-07-29T23:01:38.038Z,10.40
2022-07-29T23:04:05.973Z,7.20
2022-07-29T23:06:33.690Z,10.00
2022-07-29T23:09:01.848Z,7.20
2022-07-29T23:11:29.528Z,9.60
2022-07-29T23:13:57.224Z,10.00
2022-07-29T23:16:26.389Z,8.00
2022-07-29T23:18:54.991Z,10.40
2022-07-29T23:21:23.281Z,8.00
2022-07-29T23:23:51.031Z,10.00
2022-07-29T23:26:18.972Z,7.20
2022-07-29T23:28:46.991Z,9.20
2022-07-29T23:31:14.761Z,11.00
2022-07-29T23:33:42.428Z,12.20
2022-07-29T23:36:10.095Z,9.00
2022-07-29T23:38:39.355Z,10.00
2022-07-29T23:41:09.737Z,8.80
2022-07-29T23:43:37.635Z,11.00
2022-07-29T23:46:05.327Z,14.00
2022-07-29T23:48:34.168Z,11.80
2022-07-29T23:51:01.834Z,11.00
2022-07-29T23:53:30.753Z,8.40
2022-07-29T23:55:58.482Z,10.80
2022-07-29T23:58:26.081Z,11.00
